Time;durP1;ratioP1;P1;durP2;ratioP2;P2;SDS_P1;SDS_P2;PMS_P1;PMS_P2;Temp;Humidity;BMP_temperature;BMP_pressure;BME280_temperature;BME280_humidity;BME280_pressure;Samples;Min_cycle;Max_cycle;Signal;HPM_P1;HPM_P2
2022/01/07 00:02:09;;;;;;;18.47;8.50;;;;;;;-1.66;100.00;100394.19;4993629;28;20925;-57
2022/01/07 00:04:36;;;;;;;17.30;9.60;;;;;;;-1.68;100.00;100398.38;5020987;28;20259;-57
2022/01/07 00:07:02;;;;;;;15.97;8.77;;;;;;;-1.66;100.00;100391.66;5024630;28;20258;-57
2022/01/07 00:09:27;;;;;;;14.87;7.83;;;;;;;-1.69;100.00;100394.16;5031089;28;20521;-57
2022/01/07 00:11:53;;;;;;;15.83;8.73;;;;;;;-1.67;100.00;100398.38;5034892;28;20223;-57
2022/01/07 00:14:18;;;;;;;16.27;9.00;;;;;;;-1.76;100.00;100395.84;5032019;28;20177;-56
2022/01/07 00:16:44;;;;;;;18.90;8.77;;;;;;;-2.15;100.00;100394.94;5033844;28;20676;-56
2022/01/07 00:19:09;;;;;;;19.93;8.77;;;;;;;-2.18;100.00;100397.47;5033284;28;20871;-57
2022/01/07 00:21:34;;;;;;;19.70;8.60;;;;;;;-2.32;100.00;100393.22;5032392;28;20313;-56
2022/01/07 00:23:59;;;;;;;15.17;7.80;;;;;;;-2.30;100.00;100403.28;5034169;28;20185;-56
2022/01/07 00:26:25;;;;;;;13.43;7.37;;;;;;;-2.16;100.00;100409.22;5030939;28;20263;-56
2022/01/07 00:28:50;;;;;;;17.07;7.37;;;;;;;-1.99;100.00;100408.41;5029486;28;20179;-57
2022/01/07 00:31:15;;;;;;;13.50;8.37;;;;;;;-2.18;100.00;100403.34;5009438;28;20227;-56
2022/01/07 00:33:41;;;;;;;17.43;8.30;;;;;;;-2.02;100.00;100404.22;5036708;28;20233;-57
2022/01/07 00:36:06;;;;;;;13.27;8.13;;;;;;;-1.98;100.00;100407.59;5030621;28;20542;-56
2022/01/07 00:38:33;;;;;;;15.87;7.47;;;;;;;-1.87;100.00;100410.97;5030991;28;20176;-57
2022/01/07 00:40:58;;;;;;;13.43;9.07;;;;;;;-1.79;100.00;100403.41;5027707;28;20284;-57
2022/01/07 00:43:24;;;;;;;17.77;9.07;;;;;;;-1.80;100.00;100401.72;5038935;28;20206;-57
2022/01/07 00:45:49;;;;;;;18.77;8.60;;;;;;;-1.86;100.00;100399.19;5030534;28;20657;-56
2022/01/07 00:48:15;;;;;;;19.07;9.20;;;;;;;-1.94;100.00;100396.66;5030712;28;20207;-57
2022/01/07 00:50:41;;;;;;;15.33;8.17;;;;;;;-1.85;100.00;100396.69;5020209;28;20243;-57
2022/01/07 00:53:06;;;;;;;17.00;7.87;;;;;;;-1.78;100.00;100400.03;5029674;28;20175;-57
2022/01/07 00:55:33;;;;;;;22.40;8.17;;;;;;;-1.78;100.00;100384.91;5030467;28;20174;-57
2022/01/07 00:57:58;;;;;;;20.53;9.30;;;;;;;-1.72;100.00;100384.91;5030915;28;20200;-57
2022/01/07 01:00:26;;;;;;;19.47;8.37;;;;;;;-1.63;100.00;100381.56;5020105;28;20325;-57
2022/01/07 01:02:52;;;;;;;16.30;8.50;;;;;;;-1.61;100.00;100387.44;5029561;28;20168;-57
2022/01/07 01:05:19;;;;;;;17.10;7.67;;;;;;;-1.62;100.00;100378.19;5030366;28;20179;-57
2022/01/07 01:07:44;;;;;;;23.00;8.97;;;;;;;-1.92;100.00;100377.34;5030512;28;20204;-56
2022/01/07 01:10:12;;;;;;;15.83;8.53;;;;;;;-2.14;100.00;100374.78;5023962;28;20220;-56
2022/01/07 01:12:40;;;;;;;15.83;8.23;;;;;;;-2.07;100.00;100375.63;5033297;28;20775;-56
2022/01/07 01:15:08;;;;;;;18.57;8.60;;;;;;;-1.91;100.00;100368.09;5034200;28;20231;-56
2022/01/07 01:17:34;;;;;;;15.33;8.17;;;;;;;-1.67;100.00;100369.78;5034244;28;20197;-57
2022/01/07 01:20:01;;;;;;;16.57;7.80;;;;;;;-1.48;100.00;100363.03;5034153;28;20218;-57
2022/01/07 01:22:26;;;;;;;12.23;6.73;;;;;;;-1.40;100.00;100368.94;5023135;28;20782;-57
2022/01/07 01:24:52;;;;;;;15.77;7.77;;;;;;;-1.27;100.00;100363.88;5034068;28;20263;-56
2022/01/07 01:27:17;;;;;;;14.87;7.23;;;;;;;-1.25;100.00;100363.03;5034307;28;20181;-56
2022/01/07 01:29:43;;;;;;;19.80;9.07;;;;;;;-1.25;100.00;100363.03;5034259;28;20724;-57
2022/01/07 01:32:08;;;;;;;16.97;9.10;;;;;;;-1.15;100.00;100361.31;5002804;28;20258;-56
2022/01/07 01:34:33;;;;;;;19.33;8.30;;;;;;;-1.16;100.00;100360.47;5009056;28;20198;-56
2022/01/07 01:36:59;;;;;;;15.53;8.93;;;;;;;-1.14;100.00;100353.75;5022312;28;20189;-57
2022/01/07 01:39:24;;;;;;;16.50;8.13;;;;;;;-1.20;100.00;100353.75;5030784;28;20192;-56
2022/01/07 01:41:50;;;;;;;15.73;7.70;;;;;;;-1.17;100.00;100347.84;5037368;28;20228;-57
2022/01/07 01:44:16;;;;;;;14.87;8.33;;;;;;;-1.22;100.00;100347.84;5032211;28;20191;-56
2022/01/07 01:46:41;;;;;;;17.40;8.10;;;;;;;-1.36;100.00;100352.09;5033799;28;20200;-57
2022/01/07 01:49:06;;;;;;;17.53;7.80;;;;;;;-1.61;100.00;100347.09;5033829;28;20259;-57
2022/01/07 01:51:34;;;;;;;24.07;8.27;;;;;;;-1.58;100.00;100338.66;5022844;28;20228;-57
2022/01/07 01:53:59;;;;;;;14.93;7.67;;;;;;;-1.56;100.00;100336.97;5033117;28;20180;-57
2022/01/07 01:56:24;;;;;;;15.77;7.77;;;;;;;-1.47;100.00;100337.81;5033778;28;20199;-56
2022/01/07 01:58:50;;;;;;;17.27;7.97;;;;;;;-1.49;100.00;100334.47;5033836;28;20189;-56
2022/01/07 02:01:15;;;;;;;20.23;8.10;;;;;;;-1.42;100.00;100330.22;5022801;28;20330;-56
2022/01/07 02:03:41;;;;;;;20.10;8.87;;;;;;;-1.36;100.00;100322.66;5012813;28;20171;-56
2022/01/07 02:06:06;;;;;;;15.47;7.73;;;;;;;-1.30;100.00;100319.28;5010907;28;20540;-56
2022/01/07 02:08:31;;;;;;;15.77;8.07;;;;;;;-1.26;100.00;100315.06;5024833;28;20186;-57
2022/01/07 02:10:58;;;;;;;16.77;8.83;;;;;;;-1.21;100.00;100306.63;5029853;28;20243;-56
2022/01/07 02:13:24;;;;;;;18.67;8.17;;;;;;;-1.10;100.00;100313.31;5041451;28;20638;-56
2022/01/07 02:15:49;;;;;;;13.00;7.60;;;;;;;-1.08;100.00;100306.59;5033124;28;20189;-56
2022/01/07 02:18:16;;;;;;;15.83;8.37;;;;;;;-1.09;100.00;100298.19;5033082;28;20180;-57
2022/01/07 02:20:42;;;;;;;11.10;7.00;;;;;;;-1.15;100.00;100306.63;5027212;28;20699;-56
2022/01/07 02:23:07;;;;;;;13.57;7.50;;;;;;;-1.05;100.00;100299.84;5043485;28;20226;-57
2022/01/07 02:25:32;;;;;;;18.50;9.20;;;;;;;-1.03;100.00;100293.13;5032882;28;20168;-56
2022/01/07 02:27:58;;;;;;;17.90;9.13;;;;;;;-1.08;100.00;100299.88;5033085;28;20650;-56
2022/01/07 02:30:26;;;;;;;15.83;7.90;;;;;;;-1.13;100.00;100304.06;5025454;28;20281;-56
2022/01/07 02:32:52;;;;;;;18.20;8.33;;;;;;;-0.99;100.00;100289.72;5045104;28;20177;-56
2022/01/07 02:35:19;;;;;;;21.43;8.93;;;;;;;-1.03;100.00;100282.16;5032741;28;20658;-56
2022/01/07 02:37:45;;;;;;;15.87;8.03;;;;;;;-1.02;100.00;100279.66;5032753;28;20604;-56
2022/01/07 02:40:11;;;;;;;16.50;8.63;;;;;;;-0.84;100.00;100280.41;5023513;28;20194;-56
2022/01/07 02:42:37;;;;;;;17.07;9.10;;;;;;;-0.85;100.00;100277.03;5047068;28;20177;-56
2022/01/07 02:45:08;;;;;;;16.77;9.20;;;;;;;-0.96;100.00;100283.00;5032619;28;20208;-56
2022/01/07 02:47:49;;;;;;;13.90;8.50;;;;;;;-0.88;100.00;100282.13;5032596;28;20565;-56
2022/01/07 02:50:16;;;;;;;14.73;7.90;;;;;;;-0.83;100.00;100265.25;5011093;28;20214;-56
2022/01/07 02:52:42;;;;;;;12.70;7.90;;;;;;;-0.76;100.00;100271.09;5005380;28;20287;-56
2022/01/07 02:55:07;;;;;;;16.00;8.43;;;;;;;-0.81;100.00;100260.19;4995429;28;21058;-57
2022/01/07 02:57:33;;;;;;;18.17;8.80;;;;;;;-0.77;100.00;100261.88;4996465;28;20595;-56
2022/01/07 02:59:58;;;;;;;21.27;8.43;;;;;;;-0.92;100.00;100260.22;5018107;28;20198;-56
2022/01/07 03:02:23;;;;;;;19.27;8.40;;;;;;;-0.96;100.00;100258.56;5029497;28;20232;-57
2022/01/07 03:04:49;;;;;;;15.47;8.03;;;;;;;-0.98;100.00;100248.47;5032185;28;20170;-57
2022/01/07 03:07:14;;;;;;;18.83;9.60;;;;;;;-0.93;100.00;100245.09;5032193;28;20181;-56
2022/01/07 03:09:39;;;;;;;19.67;8.80;;;;;;;-0.82;100.00;100243.34;5032258;28;20194;-57
2022/01/07 03:12:05;;;;;;;15.23;9.27;;;;;;;-0.75;100.00;100239.94;5037292;28;20224;-57
2022/01/07 03:14:30;;;;;;;16.27;9.20;;;;;;;-0.82;100.00;100243.34;5032038;28;20178;-56
2022/01/07 03:16:56;;;;;;;20.87;9.13;;;;;;;-0.87;100.00;100242.53;5032273;28;20217;-57
2022/01/07 03:19:21;;;;;;;15.43;8.97;;;;;;;-0.82;100.00;100236.63;5032183;28;20201;-56
2022/01/07 03:21:47;;;;;;;15.90;9.23;;;;;;;-0.75;100.00;100242.47;5035229;28;20298;-57
2022/01/07 03:24:12;;;;;;;15.23;8.13;;;;;;;-0.84;100.00;100242.53;5033774;28;20507;-56
2022/01/07 03:26:38;;;;;;;14.23;8.97;;;;;;;-0.62;100.00;100234.81;5032164;28;20662;-57
2022/01/07 03:29:03;;;;;;;18.03;8.87;;;;;;;-0.63;100.00;100230.59;5031992;28;20638;-57
2022/01/07 03:31:29;;;;;;;13.50;7.80;;;;;;;-0.60;100.00;100228.91;5032597;28;20278;-57
2022/01/07 03:33:54;;;;;;;20.60;8.07;;;;;;;-0.39;100.00;100234.66;5030310;28;20180;-57
2022/01/07 03:36:19;;;;;;;16.60;8.80;;;;;;;-0.26;100.00;100227.81;5021739;28;20202;-57
2022/01/07 03:38:45;;;;;;;15.50;8.47;;;;;;;-0.28;100.00;100221.97;5028187;28;20213;-56
2022/01/07 03:41:10;;;;;;;14.27;8.13;;;;;;;-0.22;100.00;100219.38;5020330;28;20690;-57
2022/01/07 03:43:35;;;;;;;18.13;7.73;;;;;;;-0.30;100.00;100223.66;5028079;28;20182;-56
2022/01/07 03:46:01;;;;;;;19.60;8.10;;;;;;;-0.22;100.00;100216.84;5031655;28;20245;-56
2022/01/07 03:48:26;;;;;;;16.77;9.00;;;;;;;-0.10;100.00;100218.41;5031571;28;20185;-57
2022/01/07 03:50:51;;;;;;;19.10;7.87;;;;;;;-0.22;100.00;100214.31;5020816;28;20225;-56
2022/01/07 03:53:17;;;;;;;14.73;8.60;;;;;;;-0.18;100.00;100209.19;5030755;28;20281;-57
2022/01/07 03:55:43;;;;;;;19.57;8.07;;;;;;;-0.19;100.00;100207.56;5031180;28;20185;-57
2022/01/07 03:58:08;;;;;;;21.40;9.07;;;;;;;-0.21;100.00;100199.13;5031307;28;20238;-57
2022/01/07 04:00:39;;;;;;;15.33;7.87;;;;;;;-0.30;100.00;100194.13;5006672;28;20230;-57
2022/01/07 04:03:11;;;;;;;15.97;7.90;;;;;;;-0.43;100.00;100201.00;5019165;28;20666;-57
2022/01/07 04:05:36;;;;;;;16.97;7.33;;;;;;;-0.28;100.00;100194.16;5029683;28;20745;-56
2022/01/07 04:08:04;;;;;;;17.10;8.07;;;;;;;-0.28;100.00;100197.50;5031196;28;20166;-57
2022/01/07 04:10:29;;;;;;;15.70;7.30;;;;;;;-0.27;100.00;100194.13;5020791;28;20250;-57
2022/01/07 04:12:54;;;;;;;18.43;7.83;;;;;;;-0.23;100.00;100200.81;5030232;28;20201;-57
2022/01/07 04:15:23;;;;;;;10.93;7.13;;;;;;;-0.42;100.00;100199.28;5020669;28;20174;-58
2022/01/07 04:17:50;;;;;;;15.33;7.27;;;;;;;-0.37;100.00;100193.34;5029953;28;20197;-55
2022/01/07 04:20:19;;;;;;;19.87;7.57;;;;;;;-0.25;100.00;100184.84;5020813;28;20839;-57
2022/01/07 04:22:45;;;;;;;14.13;6.97;;;;;;;-0.26;100.00;100192.44;5029840;28;20181;-56
2022/01/07 04:25:17;;;;;;;14.53;7.00;;;;;;;-0.26;100.00;100185.69;5030888;28;20174;-57
2022/01/07 04:27:57;;;;;;;17.27;7.67;;;;;;;-0.32;100.00;100185.75;5031004;28;20169;-57
2022/01/07 04:30:23;;;;;;;19.67;8.43;;;;;;;-0.33;100.00;100179.84;4998933;28;20888;-57
2022/01/07 04:32:49;;;;;;;13.53;6.90;;;;;;;-0.20;100.00;100174.69;5030198;28;20185;-57
2022/01/07 04:35:16;;;;;;;12.80;7.03;;;;;;;-0.21;100.00;100176.38;5030687;28;20259;-57
2022/01/07 04:37:42;;;;;;;14.77;8.00;;;;;;;-0.22;100.00;100178.94;5031079;28;20225;-57
2022/01/07 04:40:10;;;;;;;15.63;6.83;;;;;;;-0.25;100.00;100177.25;5020632;28;20190;-57
2022/01/07 04:42:36;;;;;;;11.27;6.40;;;;;;;-0.26;100.00;100172.19;5029736;28;20170;-57
2022/01/07 04:45:03;;;;;;;12.13;6.40;;;;;;;-0.39;100.00;100174.00;5030256;28;20179;-57
2022/01/07 04:47:29;;;;;;;13.53;6.70;;;;;;;-0.25;100.00;100168.81;5021212;28;20183;-57
2022/01/07 04:49:54;;;;;;;19.80;7.17;;;;;;;-0.36;100.00;100164.72;5011023;28;20190;-57
2022/01/07 04:52:21;;;;;;;14.60;6.67;;;;;;;-0.44;100.00;100158.03;5016282;28;20292;-57
2022/01/07 04:54:46;;;;;;;13.43;7.03;;;;;;;-0.38;100.00;100158.81;5010707;28;20171;-57
2022/01/07 04:57:11;;;;;;;14.23;6.33;;;;;;;-0.40;100.00;100157.16;5010952;28;20194;-56
2022/01/07 04:59:37;;;;;;;11.23;6.53;;;;;;;-0.34;100.00;100160.47;5011054;28;20614;-57
2022/01/07 05:02:02;;;;;;;10.90;6.07;;;;;;;-0.28;100.00;100161.28;5016057;28;20279;-57
2022/01/07 05:04:28;;;;;;;9.33;6.10;;;;;;;-0.26;100.00;100155.34;5011088;28;20547;-57
2022/01/07 05:06:53;;;;;;;14.00;6.30;;;;;;;-0.22;100.00;100163.75;5010997;28;20637;-57
2022/01/07 05:09:19;;;;;;;14.53;6.10;;;;;;;-0.19;100.00;100156.97;5018226;28;20194;-57
2022/01/07 05:11:46;;;;;;;11.30;6.23;;;;;;;-0.03;100.00;100157.66;5022224;28;20222;-57
2022/01/07 05:14:12;;;;;;;11.97;5.93;;;;;;;0.04;100.00;100148.31;5027470;28;20185;-57
2022/01/07 05:16:38;;;;;;;12.30;6.63;;;;;;;0.01;100.00;100155.94;5030412;28;20205;-57
2022/01/07 05:19:03;;;;;;;15.10;6.00;;;;;;;-0.14;100.00;100156.91;5030414;28;20174;-57
2022/01/07 05:21:29;;;;;;;10.60;5.40;;;;;;;-0.08;100.00;100153.50;5031135;28;20308;-57
2022/01/07 05:23:54;;;;;;;13.70;6.13;;;;;;;-0.19;100.00;100153.59;5034480;28;20247;-57
2022/01/07 05:26:19;;;;;;;9.67;6.20;;;;;;;-0.04;100.00;100152.59;5030412;28;20177;-57
2022/01/07 05:28:45;;;;;;;10.13;6.27;;;;;;;0.03;100.00;100150.88;5030390;28;20320;-57
2022/01/07 05:31:10;;;;;;;9.93;5.93;;;;;;;0.07;100.00;100145.75;5028516;28;20287;-57
2022/01/07 05:33:35;;;;;;;12.83;6.20;;;;;;;0.16;100.00;100149.88;5036790;28;20581;-57
2022/01/07 05:36:01;;;;;;;12.60;5.90;;;;;;;0.15;100.00;100150.75;5030289;28;20193;-57
2022/01/07 05:38:26;;;;;;;10.60;6.10;;;;;;;0.27;100.00;100145.56;5030447;28;20170;-57
2022/01/07 05:40:51;;;;;;;10.93;6.13;;;;;;;0.24;100.00;100142.22;5026206;28;20226;-57
2022/01/07 05:43:17;;;;;;;11.97;6.33;;;;;;;0.30;100.00;100142.16;5039290;28;20171;-57
2022/01/07 05:45:45;;;;;;;12.33;5.93;;;;;;;0.41;100.00;100139.47;5029884;28;20623;-57
2022/01/07 05:48:11;;;;;;;10.10;6.37;;;;;;;0.40;100.00;100142.88;5030240;28;20642;-57
2022/01/07 05:50:36;;;;;;;9.83;6.37;;;;;;;0.48;100.00;100139.41;5019673;28;20230;-58
2022/01/07 05:53:02;;;;;;;13.33;6.00;;;;;;;0.52;100.00;100125.00;5029222;28;20177;-57
2022/01/07 05:55:27;;;;;;;14.57;6.07;;;;;;;0.68;100.00;100133.22;5030677;28;20297;-57
2022/01/07 05:57:52;;;;;;;12.60;6.63;;;;;;;0.55;100.00;100124.13;5033934;28;20545;-56
2022/01/07 06:00:18;;;;;;;14.90;6.23;;;;;;;0.55;100.00;100126.66;5023701;28;20186;-57
2022/01/07 06:02:44;;;;;;;10.27;6.47;;;;;;;0.53;100.00;100124.13;5032730;28;20257;-56
2022/01/07 06:05:09;;;;;;;9.00;5.63;;;;;;;0.74;100.00;100119.66;5032017;28;20192;-57
2022/01/07 06:07:35;;;;;;;12.30;5.63;;;;;;;0.82;100.00;100128.00;5033529;28;20619;-56
2022/01/07 06:10:00;;;;;;;9.27;5.10;;;;;;;0.81;100.00;100123.78;5033478;28;20201;-56
2022/01/07 06:12:26;;;;;;;8.03;5.20;;;;;;;0.76;100.00;100121.31;5022478;28;20225;-57
2022/01/07 06:14:51;;;;;;;14.23;5.90;;;;;;;0.67;100.00;100121.44;5033228;28;20201;-57
2022/01/07 06:17:18;;;;;;;8.73;5.37;;;;;;;0.55;100.00;100114.84;5032067;28;20229;-57
2022/01/07 06:19:43;;;;;;;11.33;5.03;;;;;;;0.62;100.00;100107.97;5033698;28;20260;-56
2022/01/07 06:22:08;;;;;;;11.53;6.47;;;;;;;0.62;100.00;100102.91;5007907;28;20225;-57
2022/01/07 06:24:34;;;;;;;11.83;5.90;;;;;;;0.71;100.00;100096.88;5033149;28;20186;-56
2022/01/07 06:26:59;;;;;;;11.27;6.70;;;;;;;0.77;100.00;100094.28;5033480;28;20217;-56
2022/01/07 06:29:24;;;;;;;11.63;6.27;;;;;;;0.62;100.00;100093.66;5033673;28;20190;-57
2022/01/07 06:31:50;;;;;;;12.30;7.53;;;;;;;0.44;100.00;100087.13;5022300;28;20221;-57
2022/01/07 06:34:18;;;;;;;14.13;7.27;;;;;;;0.23;100.00;100090.75;5024450;28;20202;-57
2022/01/07 06:36:43;;;;;;;14.90;7.50;;;;;;;0.30;100.00;100092.38;5012158;28;20257;-56
2022/01/07 06:39:09;;;;;;;13.00;7.63;;;;;;;0.29;100.00;100092.38;5011218;28;20171;-57
2022/01/07 06:41:34;;;;;;;16.20;7.73;;;;;;;0.14;100.00;100088.34;5003469;28;20691;-57
2022/01/07 06:43:59;;;;;;;15.20;8.13;;;;;;;0.12;100.00;100100.16;5001437;28;20636;-57
2022/01/07 06:46:25;;;;;;;15.27;7.47;;;;;;;0.05;100.00;100093.50;5012740;28;20265;-57
2022/01/07 06:48:50;;;;;;;16.63;8.03;;;;;;;0.04;100.00;100099.41;5011051;28;20190;-56
2022/01/07 06:51:15;;;;;;;14.57;8.20;;;;;;;-0.10;100.00;100097.03;5013442;28;20226;-56
2022/01/07 06:53:41;;;;;;;14.20;8.57;;;;;;;-0.22;100.00;100093.78;5008736;28;20174;-57
2022/01/07 06:56:06;;;;;;;15.23;9.87;;;;;;;-0.25;100.00;100086.25;5011909;28;20213;-56
2022/01/07 06:58:31;;;;;;;18.80;10.83;;;;;;;-0.34;100.00;100083.81;5013417;28;20182;-57
2022/01/07 07:00:57;;;;;;;18.40;11.40;;;;;;;-0.38;100.00;100087.22;5005315;28;20306;-56
2022/01/07 07:03:22;;;;;;;18.83;11.67;;;;;;;-0.33;100.00;100081.25;5015521;28;20198;-56
2022/01/07 07:05:48;;;;;;;14.80;10.93;;;;;;;-0.23;100.00;100088.75;5008679;28;20179;-56
2022/01/07 07:08:13;;;;;;;19.07;12.00;;;;;;;-0.34;100.00;100084.63;5015455;28;20177;-56
2022/01/07 07:10:38;;;;;;;22.23;11.83;;;;;;;-0.26;100.00;100087.09;5005015;28;20221;-56
2022/01/07 07:13:04;;;;;;;22.57;13.43;;;;;;;-0.35;100.00;100090.56;5017923;28;20183;-56
2022/01/07 07:15:29;;;;;;;21.50;12.90;;;;;;;-0.33;100.00;100086.31;5012126;28;20187;-57
2022/01/07 07:17:55;;;;;;;24.60;14.10;;;;;;;-0.45;100.00;100090.66;5012067;28;20394;-56
2022/01/07 07:20:20;;;;;;;19.77;13.97;;;;;;;-0.53;100.00;100098.31;5003487;28;20198;-56
2022/01/07 07:22:46;;;;;;;23.00;16.87;;;;;;;-0.55;100.00;100097.47;5017901;28;20639;-57
2022/01/07 07:25:11;;;;;;;21.97;14.93;;;;;;;-0.49;100.00;100098.25;5011714;28;20603;-56
2022/01/07 07:27:37;;;;;;;23.50;15.90;;;;;;;-0.58;100.00;100093.28;5010494;28;20190;-56
2022/01/07 07:30:07;;;;;;;22.17;16.67;;;;;;;-0.53;100.00;100098.31;5004899;28;20497;-56
2022/01/07 07:32:34;;;;;;;21.73;15.37;;;;;;;-0.53;100.00;100095.78;5021113;28;20274;-56
2022/01/07 07:35:03;;;;;;;19.97;14.90;;;;;;;-0.53;100.00;100094.09;5009750;28;20273;-56
2022/01/07 07:37:28;;;;;;;21.37;14.93;;;;;;;-0.59;100.00;100101.72;5009914;28;20272;-57
2022/01/07 07:39:54;;;;;;;17.43;13.27;;;;;;;-0.57;100.00;100099.16;5008155;28;20617;-57
2022/01/07 07:42:19;;;;;;;18.77;14.47;;;;;;;-0.39;100.00;100099.00;5013428;28;20226;-58
2022/01/07 07:44:45;;;;;;;17.03;12.70;;;;;;;-0.45;100.00;100099.06;5011169;28;20186;-56
2022/01/07 07:47:10;;;;;;;20.13;13.60;;;;;;;-0.51;100.00;100104.16;5007006;28;20687;-56
2022/01/07 07:49:35;;;;;;;18.43;12.40;;;;;;;-0.43;100.00;100101.59;4993761;28;20242;-56
2022/01/07 07:52:01;;;;;;;21.37;13.57;;;;;;;-0.46;100.00;100106.66;5006499;28;20230;-56
2022/01/07 07:54:26;;;;;;;22.40;13.20;;;;;;;-0.48;100.00;100091.53;5024112;28;20240;-56
2022/01/07 07:56:51;;;;;;;16.17;13.23;;;;;;;-0.41;100.00;100097.34;5023769;28;20203;-56
2022/01/07 07:59:17;;;;;;;22.40;13.67;;;;;;;-0.33;100.00;100093.06;5010853;28;20186;-57
2022/01/07 08:01:42;;;;;;;19.97;13.20;;;;;;;-0.36;100.00;100088.88;4996528;28;20576;-58
2022/01/07 08:04:10;;;;;;;23.43;13.33;;;;;;;-0.21;100.00;100087.88;5014006;28;20191;-56
2022/01/07 08:06:36;;;;;;;20.47;11.97;;;;;;;-0.14;100.00;100088.66;5009735;28;20254;-57
2022/01/07 08:09:03;;;;;;;16.10;12.43;;;;;;;-0.19;100.00;100081.13;5013331;28;20553;-57
2022/01/07 08:11:32;;;;;;;21.47;13.73;;;;;;;-0.21;100.00;100076.91;5004177;28;20226;-57
2022/01/07 08:16:41;;;;;;;18.73;12.77;;;;;;;-0.17;100.00;100078.59;5011806;28;20324;-57
2022/01/07 08:19:06;;;;;;;21.30;12.87;;;;;;;-0.24;100.00;100070.22;5011071;28;20179;-56
2022/01/07 08:21:32;;;;;;;17.93;10.97;;;;;;;-0.27;100.00;100072.78;5004379;28;20281;-57
2022/01/07 08:23:59;;;;;;;21.80;12.50;;;;;;;-0.24;100.00;100059.28;5011270;28;20178;-56
2022/01/07 08:26:25;;;;;;;18.20;12.83;;;;;;;-0.24;100.00;100065.16;4994499;28;20616;-56
2022/01/07 08:28:56;;;;;;;17.60;12.43;;;;;;;-0.26;100.00;100054.25;4991525;28;20671;-56
2022/01/07 08:36:39;;;;;;;16.30;12.73;;;;;;;-0.10;100.00;100049.00;4991353;28;20238;-57
2022/01/07 08:39:08;;;;;;;13.43;11.53;;;;;;;-0.16;100.00;100049.91;4995424;28;20318;-57
2022/01/07 08:41:35;;;;;;;17.37;11.73;;;;;;;-0.09;100.00;100048.16;4990037;28;20306;-58
2022/01/07 08:44:01;;;;;;;20.97;12.60;;;;;;;-0.17;100.00;100045.72;5010321;28;20213;-57
2022/01/07 08:46:26;;;;;;;14.10;12.07;;;;;;;0.03;100.00;100037.88;5011640;28;20182;-57
2022/01/07 08:48:52;;;;;;;20.70;12.00;;;;;;;0.24;100.00;100046.06;5030741;28;20260;-56
2022/01/07 08:51:17;;;;;;;17.67;11.93;;;;;;;0.30;100.00;100040.94;5019517;28;20250;-57
2022/01/07 08:53:43;;;;;;;19.03;11.93;;;;;;;0.15;100.00;100034.38;5019941;28;20209;-56
2022/01/07 08:56:09;;;;;;;16.43;10.37;;;;;;;0.31;100.00;100035.84;5002374;28;20198;-56
2022/01/07 08:58:35;;;;;;;12.93;8.70;;;;;;;0.35;100.00;100033.25;5010613;28;20690;-56
2022/01/07 09:01:01;;;;;;;18.13;9.10;;;;;;;0.43;100.00;100034.00;5002882;28;20369;-56
2022/01/07 09:03:27;;;;;;;13.33;8.27;;;;;;;0.43;100.00;100031.47;5015619;28;20182;-57
2022/01/07 09:05:53;;;;;;;13.00;7.63;;;;;;;0.40;100.00;100036.59;5010582;28;20182;-56
2022/01/07 09:08:18;;;;;;;10.90;8.40;;;;;;;0.53;100.00;100030.47;5010788;28;20171;-57
2022/01/07 09:10:44;;;;;;;13.27;8.37;;;;;;;0.42;100.00;100029.78;5002351;28;20236;-57
2022/01/07 09:13:10;;;;;;;12.13;7.27;;;;;;;0.34;100.00;100026.56;5020264;28;20258;-57
2022/01/07 09:15:36;;;;;;;11.37;8.10;;;;;;;0.37;100.00;100031.56;5006527;28;20651;-57
2022/01/07 09:18:12;;;;;;;11.93;8.30;;;;;;;0.48;100.00;100029.72;5004331;28;20248;-56
2022/01/07 09:20:40;;;;;;;13.27;7.53;;;;;;;0.57;100.00;100042.25;5000369;28;20252;-56
2022/01/07 09:23:06;;;;;;;11.27;8.00;;;;;;;0.59;100.00;100037.16;5009275;28;20637;-56
2022/01/07 09:25:32;;;;;;;16.50;8.20;;;;;;;0.62;100.00;100034.56;5008112;28;20181;-57
2022/01/07 09:27:57;;;;;;;12.07;6.33;;;;;;;0.64;100.00;100030.31;5010132;28;20568;-56
2022/01/07 09:30:22;;;;;;;15.30;8.73;;;;;;;0.69;100.00;100032.78;4994609;28;20589;-57
2022/01/07 09:32:48;;;;;;;16.17;7.63;;;;;;;0.80;100.00;100033.47;5025843;28;20234;-57
2022/01/07 09:35:15;;;;;;;14.37;7.90;;;;;;;0.96;100.00;100031.53;5009988;28;20276;-57
2022/01/07 09:37:41;;;;;;;15.03;7.37;;;;;;;1.03;100.00;100033.13;5005764;28;20242;-57
2022/01/07 09:40:07;;;;;;;10.07;6.83;;;;;;;1.09;100.00;100024.56;5004019;28;20582;-56
2022/01/07 09:42:32;;;;;;;9.93;6.53;;;;;;;1.09;100.00;100034.69;5013169;28;20167;-57
2022/01/07 09:44:58;;;;;;;9.60;6.13;;;;;;;0.95;100.00;100028.16;5013879;28;20578;-57
2022/01/07 09:47:24;;;;;;;10.27;5.90;;;;;;;1.13;100.00;100027.03;5014005;28;20170;-57
2022/01/07 09:49:49;;;;;;;7.50;5.17;;;;;;;1.22;100.00;100017.59;5013897;28;20272;-57
2022/01/07 09:52:15;;;;;;;11.47;5.73;;;;;;;1.33;100.00;100018.25;5019238;28;20275;-56
2022/01/07 09:54:40;;;;;;;7.80;4.67;;;;;;;1.44;100.00;100011.28;5013882;28;20178;-56
2022/01/07 09:57:07;;;;;;;8.13;5.20;;;;;;;1.56;100.00;100009.38;5018202;28;20910;-57
2022/01/07 09:59:33;;;;;;;5.67;4.37;;;;;;;1.78;100.00;100012.34;5007721;28;20203;-56
2022/01/07 10:02:09;;;;;;;8.10;4.57;;;;;;;1.80;100.00;100003.00;5003537;28;20314;-57
2022/01/07 10:04:40;;;;;;;8.27;4.53;;;;;;;2.12;100.00;99993.88;5013144;28;20575;-56
2022/01/07 10:07:10;;;;;;;8.13;4.27;;;;;;;1.85;100.00;99993.59;5013824;28;20264;-56
2022/01/07 10:09:38;;;;;;;7.07;4.83;;;;;;;2.00;100.00;100000.06;5012996;28;20586;-57
2022/01/07 10:12:04;;;;;;;10.27;4.83;;;;;;;2.15;100.00;99998.06;5010832;28;20575;-57
2022/01/07 10:14:32;;;;;;;7.50;4.87;;;;;;;2.23;100.00;99988.56;5013457;28;20177;-58
2022/01/07 10:17:00;;;;;;;6.90;4.37;;;;;;;2.35;100.00;99975.59;5014826;28;20232;-57
2022/01/07 10:19:53;;;;;;;7.67;4.60;;;;;;;2.51;100.00;99977.81;5004320;28;20751;-57
2022/01/07 10:22:18;;;;;;;5.70;4.00;;;;;;;2.62;100.00;99970.78;5004911;28;20236;-57
2022/01/07 10:24:59;;;;;;;7.70;5.20;;;;;;;2.73;100.00;99965.44;5008742;28;20555;-57
2022/01/07 10:27:27;;;;;;;6.47;4.33;;;;;;;2.69;100.00;99969.75;4999970;28;20232;-56
2022/01/07 10:29:53;;;;;;;6.10;4.33;;;;;;;2.78;100.00;99975.47;5024512;28;20556;-56
2022/01/07 10:32:25;;;;;;;7.30;3.90;;;;;;;2.47;100.00;99979.59;5005057;28;20218;-58
2022/01/07 10:35:15;;;;;;;4.50;3.77;;;;;;;2.17;100.00;99978.56;5029675;28;20194;-57
2022/01/07 10:37:59;;;;;;;6.00;3.50;;;;;;;2.16;100.00;99979.41;5003892;28;20784;-57
2022/01/07 10:40:39;;;;;;;11.40;4.00;;;;;;;2.14;100.00;99984.53;4986316;28;20605;-55
2022/01/07 10:43:10;;;;;;;9.87;3.97;;;;;;;1.99;100.00;99974.72;5003546;28;20174;-55
2022/01/07 10:45:37;;;;;;;5.77;3.60;;;;;;;2.07;100.00;99970.31;5010985;28;20248;-55
2022/01/07 10:48:03;;;;;;;4.07;3.67;;;;;;;2.25;100.00;99962.28;5013109;28;20681;-56
2022/01/07 10:50:28;;;;;;;7.37;4.07;;;;;;;2.21;100.00;99975.94;4995143;28;20220;-57
2022/01/07 10:53:15;;;;;;;5.23;3.43;;;;;;;2.12;100.00;99955.81;5030791;28;20582;-57
2022/01/07 10:55:55;;;;;;;5.73;4.10;;;;;;;2.19;100.00;99957.34;5023890;28;20175;-56
2022/01/07 10:58:21;;;;;;;5.03;3.80;;;;;;;2.26;100.00;99945.38;5029214;28;20229;-58
2022/01/07 11:00:46;;;;;;;6.20;3.50;;;;;;;2.16;100.00;99943.88;5015047;28;20659;-56
2022/01/07 11:03:11;;;;;;;4.73;3.50;;;;;;;2.11;100.00;99941.47;5013950;28;20555;-56
2022/01/07 11:05:37;;;;;;;7.80;4.57;;;;;;;2.12;100.00;99934.69;5008931;28;20546;-58
2022/01/07 11:08:02;;;;;;;5.57;3.90;;;;;;;2.17;100.00;99935.41;5014007;28;20219;-57
2022/01/07 11:10:29;;;;;;;5.67;3.60;;;;;;;2.29;100.00;99929.25;5002538;28;20236;-56
2022/01/07 11:12:57;;;;;;;4.40;3.33;;;;;;;2.18;100.00;99925.22;5024737;28;20681;-57
2022/01/07 11:15:22;;;;;;;5.63;3.60;;;;;;;2.30;100.00;99934.28;5015886;28;20539;-56
2022/01/07 11:17:48;;;;;;;5.10;3.73;;;;;;;2.12;100.00;99927.06;4992895;28;20214;-57